Time;durP1;ratioP1;P1;durP2;ratioP2;P2;SDS_P1;SDS_P2;PMS_P1;PMS_P2;Temp;Humidity;BMP_temperature;BMP_pressure;BME280_temperature;BME280_humidity;BME280_pressure;Samples;Min_cycle;Max_cycle;Signal;HPM_P1;HPM_P2
2023/01/14 00:02:08;;;;;;;1999.90;999.90;;;;;;;7.13;100.00;101313.75;10334345;28;20053;-66
2023/01/14 00:07:10;;;;;;;1999.90;999.90;;;;;;;7.02;100.00;101329.72;10330912;28;20058;-65
2023/01/14 00:12:12;;;;;;;1999.90;999.90;;;;;;;7.04;100.00;101342.69;10334012;28;20101;-65
2023/01/14 00:17:15;;;;;;;1999.90;999.90;;;;;;;6.88;100.00;101353.63;10316755;28;20082;-66
2023/01/14 00:22:17;;;;;;;1999.90;999.90;;;;;;;7.00;100.00;101357.59;10333178;28;20057;-66
2023/01/14 00:27:19;;;;;;;1999.90;999.90;;;;;;;6.92;100.00;101372.59;10330592;28;20387;-65
2023/01/14 00:32:22;;;;;;;1999.90;999.90;;;;;;;6.94;100.00;101377.75;10333069;28;20590;-66
2023/01/14 00:37:24;;;;;;;1999.90;999.90;;;;;;;6.74;100.00;101381.00;10334525;28;20050;-66
2023/01/14 00:42:26;;;;;;;1999.90;999.90;;;;;;;7.09;100.00;101371.19;10322735;28;20050;-66
2023/01/14 00:47:28;;;;;;;1999.90;999.90;;;;;;;6.99;100.00;101361.09;10340102;28;20050;-65
2023/01/14 00:52:31;;;;;;;1999.90;999.90;;;;;;;7.05;100.00;101354.84;10339317;28;20501;-65
2023/01/14 00:57:33;;;;;;;1999.90;999.90;;;;;;;7.00;100.00;101362.78;10341090;28;20054;-66
2023/01/14 01:02:35;;;;;;;1999.90;999.90;;;;;;;7.03;100.00;101360.09;10339273;28;20046;-65
2023/01/14 01:07:37;;;;;;;1999.90;999.90;;;;;;;7.03;100.00;101362.69;10339097;28;20078;-65
2023/01/14 01:12:40;;;;;;;1999.90;999.90;;;;;;;7.11;100.00;101369.38;10340439;28;20438;-65
2023/01/14 01:17:42;;;;;;;1999.90;999.90;;;;;;;7.08;100.00;101378.16;10339696;28;20050;-65
2023/01/14 01:22:45;;;;;;;1999.90;999.90;;;;;;;6.90;100.00;101382.22;10338605;28;20050;-65
2023/01/14 01:27:47;;;;;;;1999.90;999.90;;;;;;;6.85;100.00;101390.16;10338381;28;20101;-65
2023/01/14 01:32:50;;;;;;;1999.90;999.90;;;;;;;7.07;100.00;101382.50;10339720;28;20085;-65
2023/01/14 01:37:52;;;;;;;1999.90;999.90;;;;;;;6.66;100.00;101374.31;10321927;28;20494;-65
2023/01/14 01:42:55;;;;;;;1999.90;999.90;;;;;;;6.69;100.00;101381.16;10337495;28;20536;-65
2023/01/14 01:48:04;;;;;;;1999.90;999.90;;;;;;;6.59;100.00;101378.00;10334846;28;20490;-65
2023/01/14 01:53:08;;;;;;;1999.90;999.90;;;;;;;6.33;100.00;101392.66;10319727;28;20050;-66
2023/01/14 01:58:10;;;;;;;1999.90;999.90;;;;;;;6.66;100.00;101383.88;10338242;28;20061;-65
2023/01/14 02:03:24;;;;;;;1999.90;999.90;;;;;;;6.32;100.00;101383.16;10319368;28;20441;-65
2023/01/14 02:08:26;;;;;;;1999.90;999.90;;;;;;;6.27;100.00;101385.06;10320552;28;20109;-65
2023/01/14 02:13:35;;;;;;;1999.90;999.90;;;;;;;6.32;100.00;101390.97;10320940;28;20057;-65
2023/01/14 02:18:44;;;;;;;1999.90;999.90;;;;;;;6.10;100.00;101387.28;10319474;28;20113;-65
2023/01/14 02:24:37;;;;;;;1999.90;999.90;;;;;;;6.16;100.00;101383.66;10333403;28;20097;-65
2023/01/14 02:30:02;;;;;;;1999.90;999.90;;;;;;;6.14;100.00;101368.94;10255071;28;20054;-65
2023/01/14 02:35:30;;;;;;;1999.90;999.90;;;;;;;6.28;100.00;101347.72;10279300;28;20419;-66
2023/01/14 02:40:39;;;;;;;1999.90;999.90;;;;;;;6.10;100.00;101335.28;10318052;28;20413;-65
2023/01/14 02:45:55;;;;;;;1999.90;999.90;;;;;;;5.99;100.00;101332.19;10317848;28;20042;-65
2023/01/14 02:50:58;;;;;;;1999.90;999.90;;;;;;;5.93;100.00;101310.63;10319060;28;20058;-65
2023/01/14 02:56:01;;;;;;;1999.90;999.90;;;;;;;6.00;100.00;101297.47;10317823;28;20054;-65
2023/01/14 03:01:40;;;;;;;1999.90;999.90;;;;;;;6.01;100.00;101302.63;10314943;28;20122;-65
2023/01/14 03:06:52;;;;;;;1999.90;999.90;;;;;;;5.92;100.00;101306.31;10334810;28;20056;-65
2023/01/14 03:12:21;;;;;;;1999.90;999.90;;;;;;;5.94;100.00;101314.06;10335917;28;20047;-65
2023/01/14 03:17:26;;;;;;;1999.90;999.90;;;;;;;5.93;100.00;101300.25;10335186;28;20383;-65
2023/01/14 03:22:29;;;;;;;1999.90;999.90;;;;;;;5.91;100.00;101304.59;10333177;28;20051;-65
2023/01/14 03:27:34;;;;;;;1999.90;999.90;;;;;;;5.64;100.00;101302.84;10333860;28;20065;-65
2023/01/14 03:33:09;;;;;;;1999.90;999.90;;;;;;;5.84;100.00;101302.25;10317963;28;20043;-65
2023/01/14 03:38:28;;;;;;;1999.90;999.90;;;;;;;5.49;100.00;101289.38;10309961;28;20058;-66
2023/01/14 03:43:51;;;;;;;1999.90;999.90;;;;;;;5.83;100.00;101288.38;10294084;28;20517;-65
2023/01/14 03:48:53;;;;;;;1999.90;999.90;;;;;;;5.77;100.00;101273.84;10277533;28;20054;-65
2023/01/14 03:54:35;;;;;;;1999.90;999.90;;;;;;;5.40;100.00;101277.50;10316124;28;20441;-65
2023/01/14 03:59:54;;;;;;;1999.90;999.90;;;;;;;5.47;100.00;101272.16;10285113;28;20046;-65
2023/01/14 04:04:57;;;;;;;1999.90;999.90;;;;;;;5.69;100.00;101262.81;10300462;28;20045;-65
2023/01/14 04:09:59;;;;;;;1999.90;999.90;;;;;;;5.53;100.00;101257.25;10316939;28;20054;-65
2023/01/14 04:20:22;;;;;;;1999.90;999.90;;;;;;;5.46;100.00;101239.28;10331848;28;20058;-65
2023/01/14 04:25:25;;;;;;;1999.90;999.90;;;;;;;5.34;100.00;101243.91;10332455;28;20053;-65
2023/01/14 04:30:27;;;;;;;1999.90;999.90;;;;;;;5.47;100.00;101230.59;10333135;28;20486;-65
2023/01/14 04:35:29;;;;;;;1999.90;999.90;;;;;;;5.52;100.00;101216.56;10333638;28;20061;-65
2023/01/14 04:40:32;;;;;;;1999.90;999.90;;;;;;;5.66;100.00;101197.13;10331945;28;20054;-65
2023/01/14 04:45:37;;;;;;;1999.90;999.90;;;;;;;5.48;100.00;101191.59;10331278;28;20050;-65
2023/01/14 04:50:44;;;;;;;1999.90;999.90;;;;;;;5.53;100.00;101186.25;10319524;23;20046;-65
2023/01/14 04:55:47;;;;;;;1999.90;999.90;;;;;;;5.60;100.00;101182.59;10292055;28;20055;-65
2023/01/14 05:00:50;;;;;;;1999.90;999.90;;;;;;;5.59;100.00;101176.50;10290142;28;20494;-65
2023/01/14 05:05:53;;;;;;;1999.90;999.90;;;;;;;5.61;100.00;101170.44;10290263;28;20050;-65
2023/01/14 05:10:56;;;;;;;1999.90;999.90;;;;;;;5.80;100.00;101150.78;10292941;28;20054;-65
2023/01/14 05:16:01;;;;;;;1999.90;999.90;;;;;;;5.68;100.00;101132.97;10292665;28;20509;-65
2023/01/14 05:21:04;;;;;;;1999.90;999.90;;;;;;;5.56;100.00;101129.88;10291163;28;20090;-65
2023/01/14 05:26:07;;;;;;;1999.90;999.90;;;;;;;5.69;100.00;101130.31;10293652;28;20413;-65
2023/01/14 05:31:09;;;;;;;1999.90;999.90;;;;;;;5.67;100.00;101113.09;10299845;28;20076;-65
2023/01/14 05:36:12;;;;;;;1999.90;999.90;;;;;;;5.61;100.00;101113.28;10298277;28;20054;-65
2023/01/14 05:41:14;;;;;;;1999.90;999.90;;;;;;;5.63;100.00;101101.09;10298029;28;20450;-65
2023/01/14 05:46:17;;;;;;;1999.90;999.90;;;;;;;5.61;100.00;101085.56;10297513;28;20055;-65
2023/01/14 05:51:20;;;;;;;1999.90;999.90;;;;;;;5.73;100.00;101061.78;10296347;28;20062;-65
2023/01/14 05:56:22;;;;;;;1999.90;999.90;;;;;;;5.71;100.00;101044.53;10296935;28;20066;-65
2023/01/14 06:06:50;;;;;;;1999.90;999.90;;;;;;;5.86;100.00;101022.41;10297681;28;20058;-65
2023/01/14 06:12:01;;;;;;;1999.90;999.90;;;;;;;5.74;100.00;101014.13;10297198;28;20054;-65
2023/01/14 06:17:08;;;;;;;1999.90;999.90;;;;;;;5.79;100.00;100995.78;10298390;28;20074;-65
2023/01/14 06:22:10;;;;;;;1999.90;999.90;;;;;;;5.75;100.00;100984.63;10297109;28;20081;-65
2023/01/14 06:27:13;;;;;;;1999.90;999.90;;;;;;;5.88;100.00;100969.47;10295745;28;20486;-65
2023/01/14 06:32:15;;;;;;;1999.90;999.90;;;;;;;6.04;100.00;100956.81;10297289;28;20055;-65
2023/01/14 06:37:17;;;;;;;1999.90;999.90;;;;;;;5.84;100.00;100944.50;10296115;28;20059;-65
2023/01/14 06:42:19;;;;;;;1999.90;999.90;;;;;;;5.92;100.00;100937.28;10294711;28;20461;-65
2023/01/14 06:47:22;;;;;;;1999.90;999.90;;;;;;;5.92;100.00;100939.03;10295983;28;20055;-65
2023/01/14 06:52:24;;;;;;;1999.90;999.90;;;;;;;6.00;100.00;100925.78;10295297;28;20058;-65
2023/01/14 06:57:26;;;;;;;1999.90;999.90;;;;;;;6.03;100.00;100913.53;10295875;28;20445;-65
2023/01/14 07:02:29;;;;;;;1999.90;999.90;;;;;;;6.00;100.00;100902.38;10296283;28;20051;-65
2023/01/14 07:07:32;;;;;;;1999.90;999.90;;;;;;;6.11;100.00;100897.66;10293375;28;20086;-65
2023/01/14 07:12:34;;;;;;;1999.90;999.90;;;;;;;6.04;100.00;100883.19;10295158;28;20438;-65
2023/01/14 07:17:37;;;;;;;1999.90;999.90;;;;;;;5.92;100.00;100871.47;10295735;28;20050;-65
2023/01/14 07:22:39;;;;;;;1999.90;999.90;;;;;;;5.93;100.00;100866.22;10291492;28;20558;-65
2023/01/14 07:27:42;;;;;;;1999.90;999.90;;;;;;;5.88;100.00;100849.91;10291857;28;20121;-66
2023/01/14 07:32:44;;;;;;;1999.90;999.90;;;;;;;5.79;100.00;100846.84;10294374;28;20042;-66
2023/01/14 07:37:46;;;;;;;1999.90;999.90;;;;;;;5.77;100.00;100832.13;10293799;28;20058;-66
2023/01/14 07:42:57;;;;;;;1999.90;999.90;;;;;;;5.74;100.00;100818.41;10293112;28;20047;-66
2023/01/14 07:48:00;;;;;;;1999.90;999.90;;;;;;;5.83;100.00;100806.84;10290892;28;20387;-66
2023/01/14 07:53:02;;;;;;;1999.90;999.90;;;;;;;5.87;100.00;100782.44;10291139;28;20050;-66
2023/01/14 07:58:04;;;;;;;1999.90;999.90;;;;;;;5.94;100.00;100774.34;10293714;28;20450;-66
2023/01/14 08:03:07;;;;;;;1999.90;999.90;;;;;;;5.97;100.00;100754.34;10292247;28;20042;-66
2023/01/14 08:08:10;;;;;;;1999.90;999.90;;;;;;;5.92;100.00;100744.97;10294139;28;20098;-65
2023/01/14 08:13:13;;;;;;;1999.90;999.90;;;;;;;6.08;100.00;100732.25;10292356;28;20098;-65
2023/01/14 08:18:15;;;;;;;1999.90;999.90;;;;;;;6.03;100.00;100710.78;10292692;28;20454;-65
2023/01/14 08:23:17;;;;;;;1999.90;999.90;;;;;;;5.93;100.00;100699.03;10290889;28;20117;-65
2023/01/14 08:28:20;;;;;;;1999.90;999.90;;;;;;;6.17;100.00;100691.19;10293623;28;20442;-66
2023/01/14 08:33:22;;;;;;;1999.90;999.90;;;;;;;6.26;100.00;100675.22;10293358;28;20107;-66
2023/01/14 08:38:24;;;;;;;1999.90;999.90;;;;;;;6.18;100.00;100662.53;10293042;28;20058;-66
2023/01/14 08:43:27;;;;;;;1999.90;999.90;;;;;;;6.30;100.00;100651.63;10293491;28;20043;-66
2023/01/14 08:48:29;;;;;;;1999.90;999.90;;;;;;;6.20;100.00;100610.47;10293439;28;20058;-66
2023/01/14 08:53:34;;;;;;;1999.90;999.90;;;;;;;6.28;100.00;100616.19;10275363;28;20059;-65
2023/01/14 08:58:37;;;;;;;1999.90;999.90;;;;;;;6.32;100.00;100587.41;10294047;28;20050;-66
2023/01/14 09:03:41;;;;;;;1999.90;999.90;;;;;;;6.63;100.00;100567.84;10300759;28;20051;-65
2023/01/14 09:19:25;;;;;;;1999.90;999.90;;;;;;;6.70;100.00;100519.00;10300233;28;20046;-65
2023/01/14 09:24:27;;;;;;;1999.90;999.90;;;;;;;6.63;100.00;100497.59;10298768;28;20058;-65
2023/01/14 09:29:30;;;;;;;1999.90;999.90;;;;;;;6.66;100.00;100471.47;10299823;28;20055;-65
2023/01/14 09:34:32;;;;;;;1999.90;999.90;;;;;;;6.74;100.00;100507.53;10299588;28;20055;-65
2023/01/14 09:39:34;;;;;;;1999.90;999.90;;;;;;;6.83;100.00;100493.25;10298785;28;20482;-65
2023/01/14 09:44:38;;;;;;;1999.90;999.90;;;;;;;6.95;100.00;100492.66;10289494;28;20075;-66
2023/01/14 09:49:41;;;;;;;1999.90;999.90;;;;;;;7.04;100.00;100487.03;10289190;28;20098;-66
2023/01/14 09:54:50;;;;;;;1999.90;999.90;;;;;;;7.00;100.00;100456.03;10291884;28;20039;-66
2023/01/14 10:00:02;;;;;;;1999.90;999.90;;;;;;;7.04;100.00;100432.38;10298711;28;20065;-65
2023/01/14 10:05:29;;;;;;;1999.90;999.90;;;;;;;7.12;100.00;100416.38;10295961;28;20054;-66
2023/01/14 10:10:35;;;;;;;1999.90;999.90;;;;;;;7.21;100.00;100402.91;10295576;28;20062;-66
2023/01/14 10:15:52;;;;;;;1999.90;999.90;;;;;;;7.13;100.00;100384.22;10281857;28;20055;-66
2023/01/14 10:21:32;;;;;;;1999.90;999.90;;;;;;;7.16;100.00;100359.78;10291269;28;20042;-66
2023/01/14 10:26:34;;;;;;;1999.90;999.90;;;;;;;7.13;100.00;100350.38;10291797;28;20046;-65
2023/01/14 10:31:37;;;;;;;1999.90;999.90;;;;;;;7.31;100.00;100334.72;10288737;28;20501;-66
2023/01/14 10:36:39;;;;;;;1999.90;999.90;;;;;;;7.25;100.00;100289.03;10306363;28;20088;-66
2023/01/14 10:41:50;;;;;;;1999.90;999.90;;;;;;;7.37;100.00;100287.53;10287022;28;20046;-66
2023/01/14 10:47:08;;;;;;;1999.90;999.90;;;;;;;7.37;100.00;100275.34;10311556;28;20489;-66
2023/01/14 10:52:32;;;;;;;1999.90;999.90;;;;;;;7.37;100.00;100235.47;10300385;28;20055;-66
2023/01/14 10:57:36;;;;;;;1999.90;999.90;;;;;;;7.49;100.00;100237.41;10270271;28;20046;-66
2023/01/14 11:02:47;;;;;;;1999.90;999.90;;;;;;;7.63;100.00;100214.06;10279184;28;20062;-66
2023/01/14 11:07:51;;;;;;;1999.90;999.90;;;;;;;7.67;100.00;100196.50;10292013;28;20074;-66
2023/01/14 11:12:53;;;;;;;1999.90;999.90;;;;;;;7.71;100.00;100174.53;10295027;28;20054;-66
2023/01/14 11:18:15;;;;;;;1999.90;999.90;;;;;;;7.81;100.00;100154.84;10289663;28;20110;-66
2023/01/14 11:23:28;;;;;;;1999.90;999.90;;;;;;;7.87;100.00;100139.81;10289154;28;20054;-66
2023/01/14 11:28:30;;;;;;;1999.90;999.90;;;;;;;7.87;100.00;100126.78;10244429;28;20482;-66
2023/01/14 11:33:33;;;;;;;1999.90;999.90;;;;;;;7.91;100.00;100116.09;10292354;28;20046;-66
2023/01/14 11:38:57;;;;;;;1999.90;999.90;;;;;;;8.03;100.00;100111.94;10291798;28;20445;-66
2023/01/14 11:44:21;;;;;;;1999.90;999.90;;;;;;;8.14;100.00;100082.66;10290284;28;20466;-66
2023/01/14 11:49:25;;;;;;;1999.90;999.90;;;;;;;8.23;100.00;100055.19;10289011;28;20070;-66
2023/01/14 11:54:37;;;;;;;1999.90;999.90;;;;;;;8.24;100.00;100062.06;10290490;28;20046;-65
2023/01/14 11:59:39;;;;;;;1999.90;999.90;;;;;;;8.31;100.00;100045.16;10288146;28;20073;-66
2023/01/14 12:05:01;;;;;;;1999.90;999.90;;;;;;;8.40;100.00;100020.28;10289350;28;20106;-66
2023/01/14 12:10:15;;;;;;;1999.90;999.90;;;;;;;8.44;100.00;100006.97;10291270;28;20060;-66
2023/01/14 12:20:38;;;;;;;1999.90;999.90;;;;;;;8.50;100.00;99977.88;10289044;28;20486;-66
2023/01/14 12:25:46;;;;;;;1999.90;999.90;;;;;;;8.51;100.00;99953.50;10289002;28;20042;-66
2023/01/14 12:31:01;;;;;;;1999.90;999.90;;;;;;;8.52;100.00;99942.13;10288638;28;20465;-66
2023/01/14 12:36:19;;;;;;;1999.90;999.90;;;;;;;8.51;100.00;99943.06;10295216;28;20057;-66
2023/01/14 12:47:03;;;;;;;1999.90;999.90;;;;;;;8.49;100.00;99882.31;10297986;28;20089;-66
2023/01/14 12:52:07;;;;;;;1999.90;999.90;;;;;;;8.49;100.00;99865.81;10295711;28;20059;-66
2023/01/14 12:57:20;;;;;;;1999.90;999.90;;;;;;;8.67;100.00;99874.25;10294796;28;20047;-65
2023/01/14 13:02:41;;;;;;;1999.90;999.90;;;;;;;8.72;100.00;99852.16;10322109;28;20054;-65
2023/01/14 13:07:50;;;;;;;1999.90;999.90;;;;;;;8.64;100.00;99845.72;10301915;28;20065;-65
2023/01/14 13:12:53;;;;;;;1999.90;999.90;;;;;;;8.75;100.00;99843.28;10299172;28;20051;-65
2023/01/14 13:18:06;;;;;;;1999.90;999.90;;;;;;;8.79;100.00;99839.50;10295823;28;20454;-67
2023/01/14 13:23:08;;;;;;;1999.90;999.90;;;;;;;8.73;100.00;99811.22;10296679;28;20054;-66
2023/01/14 13:28:11;;;;;;;1999.90;999.90;;;;;;;8.85;100.00;99817.41;10297610;28;20062;-67
2023/01/14 13:33:16;;;;;;;1999.90;999.90;;;;;;;8.92;100.00;99789.97;10299628;28;20055;-67
2023/01/14 13:38:46;;;;;;;1999.90;999.90;;;;;;;8.97;100.00;99797.50;10299011;28;20477;-67
2023/01/14 13:43:51;;;;;;;1999.90;999.90;;;;;;;8.85;100.00;99770.44;10308168;28;20421;-66
2023/01/14 13:48:58;;;;;;;1999.90;999.90;;;;;;;8.97;100.00;99780.03;10299012;28;20411;-67
2023/01/14 13:54:24;;;;;;;1999.90;999.90;;;;;;;9.00;100.00;99760.75;10296439;28;20110;-67
2023/01/14 13:59:28;;;;;;;1999.90;999.90;;;;;;;8.99;100.00;99769.50;10297346;28;20055;-67
2023/01/14 14:04:55;;;;;;;1999.90;999.90;;;;;;;9.01;100.00;99736.28;10296712;28;20050;-67
2023/01/14 14:10:00;;;;;;;1999.90;999.90;;;;;;;9.05;100.00;99732.53;10297813;28;20089;-66
2023/01/14 14:15:20;;;;;;;1999.90;999.90;;;;;;;9.07;100.00;99726.25;10297294;28;20053;-66
2023/01/14 14:20:25;;;;;;;1999.90;999.90;;;;;;;9.15;100.00;99725.75;10296753;28;20053;-66
2023/01/14 14:25:39;;;;;;;1999.90;999.90;;;;;;;9.07;100.00;99696.72;10298584;28;20047;-66
2023/01/14 14:30:47;;;;;;;1999.90;999.90;;;;;;;9.17;100.00;99702.16;10296370;28;20117;-66
2023/01/14 14:35:50;;;;;;;1999.90;999.90;;;;;;;9.17;100.00;99696.91;10296791;28;20042;-66
2023/01/14 14:40:53;;;;;;;1999.90;999.90;;;;;;;9.11;100.00;99699.00;10297703;28;20134;-67
2023/01/14 14:46:07;;;;;;;1999.90;999.90;;;;;;;9.35;100.00;99694.81;10295570;28;20572;-67
2023/01/14 14:51:27;;;;;;;1999.90;999.90;;;;;;;9.27;100.00;99682.28;10295469;28;20121;-66
2023/01/14 14:56:31;;;;;;;1999.90;999.90;;;;;;;9.35;100.00;99674.75;10294490;28;20058;-66
2023/01/14 15:01:36;;;;;;;1999.90;999.90;;;;;;;9.50;100.00;99672.84;10296361;28;20170;-67
2023/01/14 15:06:40;;;;;;;1999.90;999.90;;;;;;;9.43;100.00;99664.59;10295051;28;20089;-66
2023/01/14 15:11:45;;;;;;;1999.90;999.90;;;;;;;9.41;100.00;99663.03;10295900;28;20047;-66
2023/01/14 15:16:52;;;;;;;1999.90;999.90;;;;;;;9.40;100.00;99648.31;10294645;28;20051;-66
2023/01/14 15:22:03;;;;;;;1999.90;999.90;;;;;;;9.54;100.00;99648.13;10584275;22;20416;-67
2023/01/14 15:27:06;;;;;;;1999.90;999.90;;;;;;;9.54;100.00;99627.25;10557903;28;20414;-67
2023/01/14 15:32:38;;;;;;;1999.90;999.90;;;;;;;9.57;100.00;99645.31;10558359;28;20109;-66
2023/01/14 15:37:41;;;;;;;1999.90;999.90;;;;;;;9.57;100.00;99647.09;10575581;28;20416;-66
2023/01/14 15:42:44;;;;;;;1999.90;999.90;;;;;;;9.60;100.00;99613.75;10575338;28;20482;-67
2023/01/14 15:47:47;;;;;;;1999.90;999.90;;;;;;;9.64;100.00;99596.88;10575180;28;20051;-66
2023/01/14 15:53:24;;;;;;;1999.90;999.90;;;;;;;9.69;100.00;99604.41;10556919;28;20052;-68
2023/01/14 15:58:29;;;;;;;1999.90;999.90;;;;;;;9.70;100.00;99603.47;10573216;28;20425;-67
2023/01/14 16:03:40;;;;;;;1999.90;999.90;;;;;;;9.81;100.00;99589.59;10575293;28;20052;-68
2023/01/14 16:08:45;;;;;;;1999.90;999.90;;;;;;;9.82;100.00;99591.28;10574927;28;20048;-68
2023/01/14 16:13:47;;;;;;;1999.90;999.90;;;;;;;9.90;100.00;99586.31;10556128;28;20048;-68
2023/01/14 16:18:53;;;;;;;1999.90;999.90;;;;;;;9.74;100.00;99580.53;10552257;28;20494;-67
2023/01/14 16:23:56;;;;;;;1999.90;999.90;;;;;;;9.85;100.00;99568.34;10563682;28;20509;-67
2023/01/14 16:28:58;;;;;;;1999.90;999.90;;;;;;;9.81;100.00;99574.72;10569914;28;20055;-68
2023/01/14 16:34:00;;;;;;;1999.90;999.90;;;;;;;9.83;100.00;99569.41;10540525;28;20425;-67
2023/01/14 16:39:04;;;;;;;1999.90;999.90;;;;;;;9.88;100.00;99580.34;10543583;28;20102;-67
2023/01/14 16:44:07;;;;;;;1999.90;999.90;;;;;;;9.81;100.00;99571.28;10525255;28;20040;-68
2023/01/14 16:49:09;;;;;;;1999.90;999.90;;;;;;;9.83;100.00;99572.88;10545252;28;20047;-67
2023/01/14 16:54:17;;;;;;;1999.90;999.90;;;;;;;9.84;100.00;99576.31;10544404;28;20044;-69
2023/01/14 16:59:19;;;;;;;1999.90;999.90;;;;;;;9.92;100.00;99557.41;10524335;28;20507;-68
2023/01/14 17:04:22;;;;;;;1999.90;999.90;;;;;;;9.82;100.00;99563.34;10541710;28;20048;-67
2023/01/14 17:09:27;;;;;;;1999.90;999.90;;;;;;;10.08;100.00;99557.13;10541382;28;20475;-67
2023/01/14 17:14:30;;;;;;;1999.90;999.90;;;;;;;9.98;100.00;99577.88;10543160;28;22219;-67
2023/01/14 17:19:33;;;;;;;1999.90;999.90;;;;;;;10.04;100.00;99559.97;10483711;28;20487;-67
2023/01/14 17:24:35;;;;;;;1999.90;999.90;;;;;;;10.03;100.00;99586.22;10508514;28;20052;-67
2023/01/14 17:29:37;;;;;;;1999.90;999.90;;;;;;;10.06;100.00;99559.84;10543036;28;20441;-67
2023/01/14 17:34:40;;;;;;;1999.90;999.90;;;;;;;10.07;100.00;99544.97;10524449;28;20097;-68
2023/01/14 17:39:43;;;;;;;1999.90;999.90;;;;;;;10.00;100.00;99547.22;10543278;28;20040;-67
2023/01/14 17:44:46;;;;;;;1999.90;999.90;;;;;;;10.10;100.00;99540.34;10540951;28;20094;-67
2023/01/14 17:49:49;;;;;;;1999.90;999.90;;;;;;;10.13;100.00;99573.31;10520803;28;20483;-66
2023/01/14 17:54:51;;;;;;;1999.90;999.90;;;;;;;10.27;100.00;99565.25;10542048;28;20482;-68
2023/01/14 17:59:55;;;;;;;1999.90;999.90;;;;;;;10.21;100.00;99555.25;10540791;28;20047;-67
2023/01/14 18:04:57;;;;;;;1999.90;999.90;;;;;;;10.13;100.00;99568.91;10523799;28;20533;-67
2023/01/14 18:10:00;;;;;;;1999.90;999.90;;;;;;;10.25;100.00;99567.13;10540200;28;20047;-67
2023/01/14 18:15:03;;;;;;;1999.90;999.90;;;;;;;10.33;100.00;99575.28;10541778;28;20052;-67
2023/01/14 18:20:06;;;;;;;1999.90;999.90;;;;;;;10.41;100.00;99565.06;10539522;28;20055;-67
2023/01/14 18:25:08;;;;;;;1999.90;999.90;;;;;;;10.39;100.00;99561.72;10540829;28;20483;-66
2023/01/14 18:30:11;;;;;;;1999.90;999.90;;;;;;;10.56;100.00;99591.03;10540133;28;20044;-67
2023/01/14 18:35:13;;;;;;;1999.90;999.90;;;;;;;10.43;100.00;99604.19;10540414;28;20055;-67
2023/01/14 18:40:16;;;;;;;1999.90;999.90;;;;;;;10.49;100.00;99614.22;10521769;28;20051;-67
2023/01/14 18:45:18;;;;;;;1999.90;999.90;;;;;;;10.61;100.00;99615.06;10540795;28;20055;-66
2023/01/14 18:50:21;;;;;;;1999.90;999.90;;;;;;;10.60;100.00;99627.28;10520604;28;20051;-68
2023/01/14 18:55:27;;;;;;;1999.90;999.90;;;;;;;10.51;100.00;99633.25;10522238;28;20075;-67
2023/01/14 19:00:30;;;;;;;1999.90;999.90;;;;;;;10.56;100.00;99620.63;10521279;28;20055;-67
2023/01/14 19:05:32;;;;;;;1999.90;999.90;;;;;;;10.58;100.00;99633.59;10543777;28;20139;-67
2023/01/14 19:10:35;;;;;;;1999.90;999.90;;;;;;;10.38;100.00;99607.16;10547553;28;20048;-67
2023/01/14 19:15:38;;;;;;;1999.90;999.90;;;;;;;10.36;100.00;99619.53;10538329;28;20457;-67
2023/01/14 19:20:40;;;;;;;1999.90;999.90;;;;;;;10.39;100.00;99632.38;10519620;28;20457;-65
2023/01/14 19:25:42;;;;;;;1999.90;999.90;;;;;;;10.34;100.00;99626.66;10550948;28;20051;-66
2023/01/14 19:30:45;;;;;;;1999.90;999.90;;;;;;;10.38;100.00;99619.41;10560581;28;20044;-68
2023/01/14 19:35:47;;;;;;;1999.90;999.90;;;;;;;10.25;100.00;99642.16;10539570;28;20048;-68
2023/01/14 19:40:50;;;;;;;1999.90;999.90;;;;;;;10.28;100.00;99650.63;10539222;28;20052;-66
2023/01/14 19:45:53;;;;;;;1999.90;999.90;;;;;;;10.21;100.00;99673.78;10539352;28;20052;-66
2023/01/14 19:50:57;;;;;;;1999.90;999.90;;;;;;;10.12;100.00;99661.41;10538101;28;20044;-65
2023/01/14 19:56:00;;;;;;;1999.90;999.90;;;;;;;10.06;100.00;99656.59;10536195;28;20044;-66
2023/01/14 20:01:21;;;;;;;1999.90;999.90;;;;;;;9.98;100.00;99651.09;10539099;28;20048;-67
2023/01/14 20:06:28;;;;;;;1999.90;999.90;;;;;;;10.07;100.00;99641.75;10543050;28;20078;-67
2023/01/14 20:11:31;;;;;;;1999.90;999.90;;;;;;;10.06;100.00;99640.91;10527493;28;20040;-67
2023/01/14 20:16:33;;;;;;;1999.90;999.90;;;;;;;9.83;100.00;99648.69;10546653;28;20047;-67
2023/01/14 20:21:36;;;;;;;1999.90;999.90;;;;;;;9.86;100.00;99634.53;10545586;28;20138;-66
2023/01/14 20:26:38;;;;;;;1999.90;999.90;;;;;;;9.81;100.00;99647.94;10541940;28;20476;-65
2023/01/14 20:31:41;;;;;;;1999.90;999.90;;;;;;;8.90;100.00;99706.53;10523967;28;20437;-67
2023/01/14 20:36:44;;;;;;;1999.90;999.90;;;;;;;8.77;100.00;99737.00;10545872;28;20047;-67
2023/01/14 20:47:07;;;;;;;1999.90;999.90;;;;;;;8.40;100.00;99751.59;10544472;28;20048;-66
2023/01/14 20:52:10;;;;;;;1999.90;999.90;;;;;;;8.06;100.00;99749.38;10543617;28;20487;-66
2023/01/14 20:57:15;;;;;;;1999.90;999.90;;;;;;;7.94;100.00;99737.16;10526687;28;20518;-67
2023/01/14 21:02:19;;;;;;;1999.90;999.90;;;;;;;8.04;100.00;99748.66;10542191;28;20044;-66
2023/01/14 21:07:21;;;;;;;1999.90;999.90;;;;;;;7.83;100.00;99748.22;10544171;28;20044;-66
2023/01/14 21:12:24;;;;;;;1999.90;999.90;;;;;;;8.02;100.00;99749.69;10543203;28;20048;-67
2023/01/14 21:23:01;;;;;;;1999.90;999.90;;;;;;;7.76;100.00;99739.97;10543084;28;20055;-66
2023/01/14 21:28:06;;;;;;;1999.90;999.90;;;;;;;7.85;100.00;99722.94;10523985;28;20402;-68
2023/01/14 21:33:09;;;;;;;1999.90;999.90;;;;;;;7.99;100.00;99716.84;10522921;28;20399;-66
2023/01/14 21:38:12;;;;;;;1999.90;999.90;;;;;;;7.99;100.00;99714.22;10541476;28;20032;-68
2023/01/14 21:43:26;;;;;;;1999.90;999.90;;;;;;;8.07;100.00;99717.19;10542517;28;20407;-66
2023/01/14 21:48:31;;;;;;;1999.90;999.90;;;;;;;7.67;100.00;99730.13;10525417;28;20548;-66
2023/01/14 21:53:33;;;;;;;1999.90;999.90;;;;;;;7.63;100.00;99733.84;10524875;28;20051;-67
2023/01/14 21:58:36;;;;;;;1999.90;999.90;;;;;;;7.51;100.00;99743.25;10542529;28;20048;-67
2023/01/14 22:03:38;;;;;;;1999.90;999.90;;;;;;;7.61;100.00;99751.34;10540704;28;20486;-66
2023/01/14 22:08:41;;;;;;;1999.90;999.90;;;;;;;7.75;100.00;99743.50;10539970;28;20055;-66
2023/01/14 22:13:44;;;;;;;1999.90;999.90;;;;;;;7.80;100.00;99748.41;10522468;28;20055;-66
2023/01/14 22:18:46;;;;;;;1999.90;999.90;;;;;;;7.76;100.00;99754.75;10523019;28;20399;-66
2023/01/14 22:23:49;;;;;;;1999.90;999.90;;;;;;;7.66;100.00;99736.25;10522900;28;20052;-67
2023/01/14 22:28:51;;;;;;;1999.90;999.90;;;;;;;7.73;100.00;99755.81;10540040;28;20055;-66
2023/01/14 22:33:59;;;;;;;1999.90;999.90;;;;;;;7.61;100.00;99748.72;10523429;28;20052;-68
2023/01/14 22:39:02;;;;;;;1999.90;999.90;;;;;;;7.62;100.00;99772.09;10540412;28;20483;-68
2023/01/14 22:44:04;;;;;;;1999.90;999.90;;;;;;;7.62;100.00;99769.47;10522062;28;20061;-67
2023/01/14 22:49:07;;;;;;;1999.90;999.90;;;;;;;7.61;100.00;99782.59;10539399;28;20478;-66
2023/01/14 22:54:09;;;;;;;1999.90;999.90;;;;;;;7.69;100.00;99779.53;10540678;28;20051;-66
2023/01/14 22:59:12;;;;;;;1999.90;999.90;;;;;;;7.48;100.00;99789.47;10539789;28;20445;-66